Historyczne dane pomiarowe

Dodano dane terminowe – wersja testowa.

Dane z okresu 1951-2019

Wersja bazy: 1.34 [2019-03-16, lista zmian], aktualizacja planowana na 2019-04-15

Dane meteo z obszaru Polski uzyskane na podstawie danych udostępnionych przez Instytut Meteorologii i Gospodarki Wodnej – Państwowy Instytut Badawczy.

 

Wybierz Datę:    

       

TemperaturaWilgotnośćWiatrCiśnienieOpadyŚniegCzas trwania zjawisk
 Stacja t tx tn tng RH VA  wxwx mslp ppp RRR   cm mm wxwxwxwxwxwxwx
1956-11-09 -6.4 -1.5 -8.2-12.5 85.8- 0.3 2.0---- 0.3------------
1956-11-08 -4.8 -0.3 -8.0-12.0 80.5- 0.3 3.0---- 0.0------------
1956-11-07 -1.3 2.6 -3.7 -7.8 79.8- 4.7 5.7---- 0.4-- 1---------
1956-11-06 0.3 4.6 -0.8 -2.5 85.8- 2.3 5.3---- 0.8------------
1956-11-05 1.3 4.5 -7.0-12.5 92.0- 7.7 3.7---- 3.0------------
1956-11-04 -2.1 2.8 -7.7-12.3 81.0- 0.3 1.3---- 0.0------------
1956-11-03 -2.0 1.3 -6.2 -8.5 95.0- 5.0 3.3---- 0.0------------
1956-11-02 -2.9 0.4 -5.2 -8.7 95.0- 5.3 2.0---- 0.8------------
1956-11-01 -2.0 4.7 -7.8-13.4 71.5- 1.7 5.3---- 0.0------------
1956-10-31 -4.7 0.3 -6.3 -3.9 78.0- 2.7 3.3---- 0.0------------
1956-10-30 2.0 5.4 -0.3 2.2 94.5- 8.0 3.7---- 0.0------------
1956-10-29 5.1 10.1 3.2 -1.5 88.3- 2.3 3.0---- 0.8------------
1956-10-28 10.3 12.8 8.4 3.5 92.5- 7.7 2.7---- 3.7------------
1956-10-27 8.5 11.8 5.2 1.2 97.8- 6.7 3.0---- 2.9------------
1956-10-26 9.1 15.5 2.7 -1.3 89.0- 4.3 1.7---- 0.0------------
1956-10-25 8.3 16.3 3.1 0.7 90.3- 2.7 3.0---- 0.0------------
1956-10-24 9.8 15.9 6.7 0.2 89.5- 5.3 3.3---- 0.0------------
1956-10-23 9.8 13.7 5.6 0.9 88.8- 7.7 3.7---- 0.0------------
1956-10-22 10.4 16.7 6.5 3.5 92.5- 3.7 3.3---- 0.0------------
1956-10-21 12.3 15.9 8.5 6.2 89.8- 8.0 2.3---- 0.0------------
1956-10-20 10.2 12.9 8.4 5.4 95.8- 8.0 1.7---- 0.0------------
1956-10-19 10.8 13.9 7.9 6.6 94.8- 7.7 4.3---- 0.3------------
1956-10-18 8.2 14.1 -0.3 -4.9 81.8- 6.7 2.7---- 1.2------------
1956-10-17 4.2 11.1 -1.4 -6.6 79.5- 0.0 1.0---- 0.0------------
1956-10-16 4.9 10.7 1.6 -2.0 85.8- 1.0 2.7---- 0.0------------
1956-10-15 5.7 11.4 0.2 -3.2 79.3- 2.0 4.0---- 0.0------------
1956-10-14 7.8 11.8 5.9 7.1 73.3- 3.3 10.0---- 0.8------------
1956-10-13 9.4 11.3 4.1 0.7 81.3- 8.0 8.7---- 0.0------------
1956-10-12 7.5 11.4 6.1 5.5 91.3- 5.3 5.7---- 0.0------------
1956-10-11 6.7 11.6 1.7 2.9 77.8- 7.7 4.3---- 0.0------------
1956-10-10 3.2 8.0 1.2 -1.0 83.0- 2.0 4.7---- 0.0------------
1956-10-09 5.1 11.1 -1.6 -5.9 86.5- 2.3 1.7---- 0.0------------
1956-10-08 4.5 10.1 0.9 -1.4 86.3- 3.7 4.0---- 0.0------------
1956-10-07 5.4 7.7 0.8 -0.4 91.0- 7.0 10.7---- 0.8------------
1956-10-06 8.0 11.9 6.5 7.6 99.8- 8.0 3.3---- 18.7------------
1956-10-05 11.6 15.9 6.6 1.0 80.8- 6.3 3.0---- 6.2------------
1956-10-04 10.0 12.6 8.6 1.7 98.5- 8.0 2.0---- 10.0------------
1956-10-03 15.7 24.5 12.2 5.6 76.5- 5.0 4.7---- 0.0------------
1956-10-02 17.4 25.4 10.8 6.4 74.8- 0.7 3.0---- 0.0------------
1956-10-01 14.6 23.7 6.5 1.5 86.3- 1.3 1.3---- 0.0------------
1956-09-30 13.6 19.4 11.3 10.4 82.5- 4.3 2.0---- 0.0------------
1956-09-29 15.8 21.8 10.1 6.4 83.0- 5.0 4.3---- 0.0------------
1956-09-28 13.2 21.3 10.8 7.2 89.3- 3.7 3.0---- 0.0------------
1956-09-27 14.5 22.2 7.0 3.2 64.5- 4.7 3.0---- 0.0------------
1956-09-26 13.0 21.7 5.2 1.8 67.0- 0.0 3.0---- 0.0------------
1956-09-25 11.2 20.3 3.5 -0.7 82.3- 3.3 3.0---- 0.0------------
1956-09-24 8.5 15.0 3.7 -0.4 62.8- 0.0 4.0---- 0.0------------
1956-09-23 10.3 15.7 8.2 4.4 79.0- 2.0 4.0---- 0.0------------
1956-09-22 12.3 20.6 5.4 0.2 76.5- 0.0 1.3---- 0.0------------
1956-09-21 11.4 19.2 5.9 1.4 82.8- 0.0 0.7---- 0.0------------
1956-09-20 10.4 16.8 2.1 -0.5 70.8- 4.3 2.0---- 0.0------------
1956-09-19 9.0 15.6 2.9 -2.0 76.8- 0.7 1.0---- 0.0------------
1956-09-18 6.8 11.9 4.9 2.5 90.0- 5.0 2.7---- 0.0------------
1956-09-17 7.8 12.7 6.9 6.4 87.8- 6.0 3.7---- 3.0------------
1956-09-16 12.0 16.6 7.9 5.4 75.3- 6.3 4.0---- 0.2------------
1956-09-15 11.1 17.0 7.0 3.5 86.3- 5.0 4.0---- 0.0------------
1956-09-14 10.0 14.2 5.7 3.7 79.3- 7.0 4.7---- 0.0------------
1956-09-13 9.1 14.7 6.8 4.2 82.0- 4.0 4.3---- 0.0------------
1956-09-12 11.0 15.0 9.2 5.6 91.5- 5.3 3.7---- 22.4------------
1956-09-11 13.0 17.1 11.4 10.1 89.5- 5.3 3.7---- 0.0------------
277.0 ms

 

Źródłem pochodzenia danych jest Instytut Meteorologii i Gospodarki Wodnej – Państwowy Instytut Badawczy. Dane Instytutu Meteorologii i Gospodarki Wodnej – Państwowego Instytutu Badawczego zostały przetworzone.

Dane źródłowe można odnaleźć na stronie https://dane.imgw.pl